Time;durP1;ratioP1;P1;durP2;ratioP2;P2;SDS_P1;SDS_P2;PMS_P1;PMS_P2;Temp;Humidity;BMP_temperature;BMP_pressure;BME280_temperature;BME280_humidity;BME280_pressure;Samples;Min_cycle;Max_cycle;Signal;HPM_P1;HPM_P2
2023/05/30 00:01:06;;;;;;;4.55;1.48;;;;;;;;;;5036688;28;20197;-48
2023/05/30 00:03:35;;;;;;;3.03;1.33;;;;;;;;;;5036739;28;20275;-48
2023/05/30 00:06:02;;;;;;;3.28;1.75;;;;;;;;;;5019365;28;20201;-50
2023/05/30 00:08:30;;;;;;;2.95;1.30;;;;;;;;;;5036586;28;20254;-50
2023/05/30 00:10:57;;;;;;;5.65;1.90;;;;;;;;;;5036186;28;20241;-48
2023/05/30 00:13:28;;;;;;;1.67;1.20;;;;;;;;;;5036282;28;20209;-48
2023/05/30 00:15:57;;;;;;;1.92;1.45;;;;;;;;;;5036186;28;20193;-48
2023/05/30 00:18:25;;;;;;;4.05;1.73;;;;;;;;;;5036423;28;20185;-49
2023/05/30 00:20:52;;;;;;;2.25;1.40;;;;;;;;;;5036316;28;20208;-48
2023/05/30 00:23:20;;;;;;;3.85;1.77;;;;;;;;;;5017516;28;20561;-50
2023/05/30 00:25:48;;;;;;;3.35;1.65;;;;;;;;;;5036097;28;20208;-50
2023/05/30 00:28:15;;;;;;;3.55;2.10;;;;;;;;;;5035860;28;20224;-48
2023/05/30 00:30:42;;;;;;;3.30;1.63;;;;;;;;;;5036040;28;20259;-48
2023/05/30 00:33:10;;;;;;;3.20;1.70;;;;;;;;;;5035939;28;20205;-49
2023/05/30 00:35:37;;;;;;;2.15;1.50;;;;;;;;;;5018412;28;20296;-49
2023/05/30 00:38:05;;;;;;;3.22;1.80;;;;;;;;;;5035793;28;20212;-50
2023/05/30 00:40:32;;;;;;;3.00;2.00;;;;;;;;;;5035982;28;20208;-49
2023/05/30 00:42:59;;;;;;;2.58;1.83;;;;;;;;;;5035940;28;20247;-49
2023/05/30 00:45:26;;;;;;;2.38;1.70;;;;;;;;;;5035632;28;20288;-48
2023/05/30 00:47:53;;;;;;;2.78;1.70;;;;;;;;;;5035495;28;20224;-50
2023/05/30 00:50:21;;;;;;;2.47;1.60;;;;;;;;;;5018343;28;20208;-49
2023/05/30 00:52:49;;;;;;;5.88;1.50;;;;;;;;;;5035429;28;20197;-50
2023/05/30 00:55:16;;;;;;;1.95;1.70;;;;;;;;;;5017771;28;20201;-49
2023/05/30 00:57:44;;;;;;;2.50;1.90;;;;;;;;;;5017924;28;20204;-49
2023/05/30 01:00:12;;;;;;;4.97;1.40;;;;;;;;;;5035417;28;20212;-48
2023/05/30 01:02:41;;;;;;;1.92;1.52;;;;;;;;;;5018194;28;20204;-49
2023/05/30 01:05:08;;;;;;;3.50;1.88;;;;;;;;;;5017797;28;20582;-49
2023/05/30 01:07:36;;;;;;;3.97;2.00;;;;;;;;;;5035294;28;20224;-48
2023/05/30 01:10:03;;;;;;;3.35;2.15;;;;;;;;;;5035220;28;20206;-50
2023/05/30 01:12:47;;;;;;;3.17;2.15;;;;;;;;;;5035098;28;20658;-49
2023/05/30 01:15:21;;;;;;;4.22;1.88;;;;;;;;;;5017502;28;20192;-49
2023/05/30 01:18:14;;;;;;;3.17;2.03;;;;;;;;;;5017741;28;20211;-48
2023/05/30 01:20:44;;;;;;;4.43;1.67;;;;;;;;;;5017954;28;20276;-48
2023/05/30 01:23:41;;;;;;;7.03;2.20;;;;;;;;;;5017748;28;20196;-48
2023/05/30 01:26:17;;;;;;;3.40;1.90;;;;;;;;;;5001690;28;20224;-49
2023/05/30 01:28:45;;;;;;;2.97;1.85;;;;;;;;;;5034940;28;20228;-49
2023/05/30 01:31:12;;;;;;;3.80;2.00;;;;;;;;;;5017419;28;20207;-50
2023/05/30 01:33:41;;;;;;;2.08;1.67;;;;;;;;;;5017470;28;20258;-49
2023/05/30 01:36:08;;;;;;;2.35;1.88;;;;;;;;;;5016686;28;20201;-48
2023/05/30 01:38:37;;;;;;;6.32;1.92;;;;;;;;;;5034812;28;20205;-49
2023/05/30 01:41:20;;;;;;;4.57;2.20;;;;;;;;;;5016743;28;20676;-50
2023/05/30 01:44:03;;;;;;;2.67;1.70;;;;;;;;;;5017018;28;20219;-49
2023/05/30 01:46:36;;;;;;;2.45;1.75;;;;;;;;;;5034567;28;20283;-50
2023/05/30 01:49:18;;;;;;;2.10;1.70;;;;;;;;;;5000388;28;20231;-48
2023/05/30 01:51:58;;;;;;;4.35;2.03;;;;;;;;;;5034152;28;20672;-49
2023/05/30 01:54:28;;;;;;;2.65;1.67;;;;;;;;;;5000437;28;20234;-48
2023/05/30 01:57:18;;;;;;;2.95;2.00;;;;;;;;;;5016624;28;20205;-48
2023/05/30 01:59:47;;;;;;;4.63;1.83;;;;;;;;;;5034118;28;20208;-48
2023/05/30 02:02:14;;;;;;;2.92;1.88;;;;;;;;;;5016442;28;20244;-48
2023/05/30 02:04:41;;;;;;;3.38;2.00;;;;;;;;;;5033860;28;20212;-48
2023/05/30 02:07:08;;;;;;;2.30;1.70;;;;;;;;;;5016516;28;20604;-48
2023/05/30 02:09:36;;;;;;;4.38;1.83;;;;;;;;;;5016269;28;20200;-47
2023/05/30 02:12:05;;;;;;;3.33;1.67;;;;;;;;;;5016309;28;20299;-48
2023/05/30 02:14:34;;;;;;;2.42;1.70;;;;;;;;;;5016147;28;20204;-48
2023/05/30 02:17:01;;;;;;;2.22;1.70;;;;;;;;;;5033674;28;20200;-48
2023/05/30 02:19:29;;;;;;;2.85;2.05;;;;;;;;;;5033588;28;20208;-49
2023/05/30 02:21:56;;;;;;;3.42;2.28;;;;;;;;;;5016236;28;20197;-52
2023/05/30 02:24:23;;;;;;;2.47;1.80;;;;;;;;;;5015953;28;20209;-51
2023/05/30 02:26:52;;;;;;;3.08;2.20;;;;;;;;;;5015923;28;20665;-51
2023/05/30 02:29:20;;;;;;;4.35;2.20;;;;;;;;;;5015833;28;20603;-48
2023/05/30 02:31:48;;;;;;;3.10;1.92;;;;;;;;;;5033385;28;20200;-48
2023/05/30 02:34:15;;;;;;;3.28;2.25;;;;;;;;;;5015809;28;20212;-48
2023/05/30 02:36:42;;;;;;;3.60;2.28;;;;;;;;;;5033381;28;20239;-48
2023/05/30 02:39:10;;;;;;;3.17;2.10;;;;;;;;;;5015985;28;20213;-48
2023/05/30 02:41:40;;;;;;;9.68;2.50;;;;;;;;;;4999825;28;20255;-49
2023/05/30 02:44:07;;;;;;;4.53;2.60;;;;;;;;;;5033398;28;20204;-48
2023/05/30 02:46:34;;;;;;;3.17;2.17;;;;;;;;;;5033142;28;20215;-49
2023/05/30 02:49:03;;;;;;;4.00;2.45;;;;;;;;;;5015712;28;20229;-48
2023/05/30 02:51:31;;;;;;;5.07;2.70;;;;;;;;;;5015806;28;20235;-48
2023/05/30 02:53:59;;;;;;;3.05;1.95;;;;;;;;;;5016152;28;20205;-48
2023/05/30 02:56:55;;;;;;;2.85;2.08;;;;;;;;;;5033194;28;20755;-48
2023/05/30 02:59:41;;;;;;;3.45;2.50;;;;;;;;;;5033662;28;20209;-48
2023/05/30 03:02:11;;;;;;;3.05;2.25;;;;;;;;;;5015788;28;20254;-48
2023/05/30 03:04:45;;;;;;;3.35;2.47;;;;;;;;;;5015746;28;20209;-48
2023/05/30 03:07:17;;;;;;;7.22;2.67;;;;;;;;;;5015719;28;20208;-48
2023/05/30 03:09:46;;;;;;;5.53;2.55;;;;;;;;;;5015797;28;20235;-48
2023/05/30 03:12:14;;;;;;;4.70;2.70;;;;;;;;;;5015567;28;20649;-49
2023/05/30 03:14:41;;;;;;;6.78;2.53;;;;;;;;;;5015960;28;20205;-48
2023/05/30 03:17:08;;;;;;;7.18;2.30;;;;;;;;;;5033093;28;20291;-48
2023/05/30 03:19:36;;;;;;;4.05;2.67;;;;;;;;;;5015696;28;20216;-51
2023/05/30 03:22:07;;;;;;;4.40;2.40;;;;;;;;;;5015806;28;20188;-50
2023/05/30 03:24:35;;;;;;;4.70;2.95;;;;;;;;;;5033548;28;20205;-49
2023/05/30 03:27:02;;;;;;;4.40;2.60;;;;;;;;;;5015575;28;20804;-48
2023/05/30 03:29:29;;;;;;;3.60;2.33;;;;;;;;;;5015504;28;20224;-48
2023/05/30 03:31:56;;;;;;;8.02;2.58;;;;;;;;;;5040805;28;20291;-48
2023/05/30 03:34:25;;;;;;;2.75;2.20;;;;;;;;;;5028900;28;20204;-48
2023/05/30 03:36:52;;;;;;;4.60;2.80;;;;;;;;;;5031119;28;20200;-49
2023/05/30 03:39:20;;;;;;;5.80;3.10;;;;;;;;;;5031009;28;20199;-51
2023/05/30 03:41:47;;;;;;;3.90;2.55;;;;;;;;;;5047306;28;20716;-48
2023/05/30 03:44:14;;;;;;;4.32;3.00;;;;;;;;;;5029903;28;20204;-51
2023/05/30 03:46:42;;;;;;;4.00;2.42;;;;;;;;;;5030354;28;20203;-49
2023/05/30 03:49:09;;;;;;;5.60;2.40;;;;;;;;;;5026867;28;20239;-54
2023/05/30 03:51:36;;;;;;;4.30;2.58;;;;;;;;;;5047721;28;20205;-52
2023/05/30 03:54:04;;;;;;;4.97;2.83;;;;;;;;;;5045629;28;20199;-50
2023/05/30 03:56:31;;;;;;;5.20;2.60;;;;;;;;;;5027964;28;20201;-49
2023/05/30 03:58:59;;;;;;;4.35;2.55;;;;;;;;;;5026346;28;20205;-48
2023/05/30 04:01:27;;;;;;;5.53;3.22;;;;;;;;;;5028782;28;20675;-49
2023/05/30 04:03:55;;;;;;;4.97;2.92;;;;;;;;;;5044769;28;20200;-48
2023/05/30 04:06:24;;;;;;;4.57;3.20;;;;;;;;;;5008441;28;20221;-47
2023/05/30 04:08:51;;;;;;;4.20;2.65;;;;;;;;;;5050884;28;20578;-48
2023/05/30 04:11:19;;;;;;;3.60;2.78;;;;;;;;;;5038086;28;20242;-48
2023/05/30 04:13:46;;;;;;;5.00;2.58;;;;;;;;;;5049035;28;20228;-47
2023/05/30 04:16:14;;;;;;;6.78;3.17;;;;;;;;;;5026879;28;20235;-47
2023/05/30 04:18:43;;;;;;;4.25;2.80;;;;;;;;;;5028191;28;20282;-47
2023/05/30 04:21:14;;;;;;;4.05;2.80;;;;;;;;;;5021235;28;20271;-47
2023/05/30 04:23:43;;;;;;;6.97;3.20;;;;;;;;;;5037717;28;20212;-48
2023/05/30 04:26:10;;;;;;;4.07;3.03;;;;;;;;;;5030889;28;20231;-47
2023/05/30 04:28:38;;;;;;;7.13;2.65;;;;;;;;;;5037328;28;20708;-48
2023/05/30 04:31:06;;;;;;;7.70;2.45;;;;;;;;;;5037547;28;20247;-48
2023/05/30 04:33:50;;;;;;;4.63;2.80;;;;;;;;;;5031309;28;20233;-47
2023/05/30 04:36:20;;;;;;;3.72;2.53;;;;;;;;;;5022572;28;20223;-47
2023/05/30 04:38:49;;;;;;;4.90;2.67;;;;;;;;;;5017455;28;20240;-46
2023/05/30 04:41:20;;;;;;;5.13;2.83;;;;;;;;;;5034779;28;20224;-47
2023/05/30 04:43:52;;;;;;;5.75;2.60;;;;;;;;;;5025306;28;20220;-47
2023/05/30 04:46:23;;;;;;;5.00;2.90;;;;;;;;;;5033975;28;20228;-47
2023/05/30 04:48:53;;;;;;;4.47;2.65;;;;;;;;;;5047716;28;20229;-47
2023/05/30 04:51:20;;;;;;;5.00;2.58;;;;;;;;;;5044730;28;20220;-48
2023/05/30 04:53:50;;;;;;;3.72;2.65;;;;;;;;;;5028286;28;20215;-47
2023/05/30 04:56:20;;;;;;;6.53;3.05;;;;;;;;;;5050802;28;20216;-47
2023/05/30 04:58:48;;;;;;;9.75;3.15;;;;;;;;;;5045518;28;20228;-48
2023/05/30 05:01:18;;;;;;;3.45;2.40;;;;;;;;;;5041677;28;20228;-48
2023/05/30 05:03:46;;;;;;;7.05;2.63;;;;;;;;;;5026040;28;20599;-48
2023/05/30 05:06:13;;;;;;;6.50;2.88;;;;;;;;;;5041632;28;20727;-50
2023/05/30 05:08:41;;;;;;;5.82;2.83;;;;;;;;;;5046601;28;20228;-48
2023/05/30 05:11:08;;;;;;;3.97;2.60;;;;;;;;;;5043689;28;20303;-48
2023/05/30 05:13:35;;;;;;;4.80;2.30;;;;;;;;;;5043634;28;20208;-48
2023/05/30 05:16:06;;;;;;;5.90;2.65;;;;;;;;;;5050912;28;20196;-47
2023/05/30 05:18:33;;;;;;;4.22;2.35;;;;;;;;;;5034479;28;20212;-49
2023/05/30 05:21:00;;;;;;;4.88;2.22;;;;;;;;;;5048935;28;20241;-49
2023/05/30 05:23:29;;;;;;;4.95;2.05;;;;;;;;;;5034866;28;20680;-50
2023/05/30 05:25:56;;;;;;;5.93;2.72;;;;;;;;;;5034162;28;20205;-48
2023/05/30 05:28:24;;;;;;;4.00;2.53;;;;;;;;;;5034787;28;20233;-50
2023/05/30 05:30:52;;;;;;;3.08;1.63;;;;;;;;;;5034896;28;20211;-50
2023/05/30 05:33:20;;;;;;;3.97;2.50;;;;;;;;;;5034776;28;20208;-48
2023/05/30 05:35:48;;;;;;;3.33;1.98;;;;;;;;;;5034766;28;20215;-50
2023/05/30 05:38:16;;;;;;;4.32;2.08;;;;;;;;;;5034721;28;20216;-49
2023/05/30 05:40:43;;;;;;;3.10;1.73;;;;;;;;;;5034590;28;20204;-48
2023/05/30 05:43:11;;;;;;;5.07;1.98;;;;;;;;;;5034363;28;20240;-51
2023/05/30 05:45:38;;;;;;;7.95;2.45;;;;;;;;;;5034708;28;20211;-48
2023/05/30 05:48:06;;;;;;;4.15;2.28;;;;;;;;;;5034434;28;20201;-48
2023/05/30 05:50:33;;;;;;;3.95;2.05;;;;;;;;;;5034345;28;20667;-49
2023/05/30 05:53:00;;;;;;;2.80;1.65;;;;;;;;;;5034501;28;20279;-50
2023/05/30 05:55:27;;;;;;;3.08;2.05;;;;;;;;;;5034709;28;20197;-48
2023/05/30 05:57:55;;;;;;;4.05;1.90;;;;;;;;;;5034543;28;20231;-50
2023/05/30 06:00:25;;;;;;;2.97;1.75;;;;;;;;;;5034291;28;20743;-49
2023/05/30 06:02:52;;;;;;;4.43;1.90;;;;;;;;;;5034189;28;20204;-50
2023/05/30 06:05:20;;;;;;;5.32;1.83;;;;;;;;;;5034464;28;20212;-50
2023/05/30 06:07:47;;;;;;;7.60;2.35;;;;;;;;;;5034074;28;20215;-50
2023/05/30 06:10:14;;;;;;;4.53;2.17;;;;;;;;;;5033836;28;20594;-48
2023/05/30 06:12:41;;;;;;;5.00;2.47;;;;;;;;;;5034433;28;20203;-48
2023/05/30 06:15:09;;;;;;;5.95;2.13;;;;;;;;;;5033932;28;20662;-48
2023/05/30 06:17:36;;;;;;;7.45;2.08;;;;;;;;;;5033882;28;20228;-49
2023/05/30 06:20:03;;;;;;;3.20;1.92;;;;;;;;;;5043081;28;20219;-52
2023/05/30 06:22:31;;;;;;;4.20;2.10;;;;;;;;;;5035677;28;20212;-49
2023/05/30 06:24:58;;;;;;;3.83;1.85;;;;;;;;;;5053647;28;20549;-50
2023/05/30 06:27:25;;;;;;;3.90;2.15;;;;;;;;;;5053594;28;20203;-52
2023/05/30 06:29:53;;;;;;;5.25;2.08;;;;;;;;;;5053542;28;20714;-54
2023/05/30 06:32:20;;;;;;;5.72;1.77;;;;;;;;;;5053711;28;20604;-50
2023/05/30 06:34:47;;;;;;;3.05;1.80;;;;;;;;;;5053569;28;20283;-50
2023/05/30 06:37:15;;;;;;;3.65;1.73;;;;;;;;;;5053475;28;20204;-49
2023/05/30 06:39:42;;;;;;;3.55;1.92;;;;;;;;;;5053392;28;20239;-48
2023/05/30 06:42:10;;;;;;;4.38;2.03;;;;;;;;;;5053544;28;20235;-49
2023/05/30 06:44:43;;;;;;;4.28;2.10;;;;;;;;;;5053759;28;20282;-51
2023/05/30 06:47:10;;;;;;;5.00;2.13;;;;;;;;;;5053461;28;20669;-48
2023/05/30 06:49:37;;;;;;;2.97;1.48;;;;;;;;;;5053379;28;20254;-48
2023/05/30 06:52:05;;;;;;;4.30;1.95;;;;;;;;;;5041839;28;20565;-49
2023/05/30 06:54:32;;;;;;;3.47;1.88;;;;;;;;;;5015756;28;20204;-49
2023/05/30 06:57:02;;;;;;;5.88;2.13;;;;;;;;;;5033645;28;20212;-48
2023/05/30 06:59:31;;;;;;;3.13;1.88;;;;;;;;;;4998701;28;20204;-48
2023/05/30 07:01:59;;;;;;;5.68;2.10;;;;;;;;;;5033511;28;20246;-49
2023/05/30 07:04:26;;;;;;;2.80;1.80;;;;;;;;;;5033369;28;20615;-49
2023/05/30 07:06:55;;;;;;;7.95;2.22;;;;;;;;;;5033177;28;20215;-49
2023/05/30 07:09:22;;;;;;;4.97;2.45;;;;;;;;;;5033194;28;20235;-49
2023/05/30 07:11:51;;;;;;;4.70;2.15;;;;;;;;;;5033525;28;20554;-49
2023/05/30 07:14:18;;;;;;;4.53;2.03;;;;;;;;;;5033466;28;20208;-50
2023/05/30 07:16:46;;;;;;;5.38;2.28;;;;;;;;;;5033390;28;20211;-50
2023/05/30 07:19:13;;;;;;;6.05;2.65;;;;;;;;;;5033422;28;20266;-50
2023/05/30 07:21:40;;;;;;;6.32;2.47;;;;;;;;;;5033339;28;20212;-48
2023/05/30 07:24:07;;;;;;;5.90;2.08;;;;;;;;;;5033386;28;20226;-50
2023/05/30 07:26:35;;;;;;;5.85;2.00;;;;;;;;;;5033292;28;20200;-51
2023/05/30 07:29:02;;;;;;;5.78;2.40;;;;;;;;;;5033220;28;20278;-49
2023/05/30 07:31:30;;;;;;;3.95;2.40;;;;;;;;;;5033343;28;20232;-48
2023/05/30 07:33:57;;;;;;;4.55;2.13;;;;;;;;;;5035835;28;20200;-49
2023/05/30 07:36:24;;;;;;;3.65;2.05;;;;;;;;;;5037341;28;20270;-49
2023/05/30 07:38:51;;;;;;;9.07;2.13;;;;;;;;;;5037067;28;20204;-50
2023/05/30 07:41:20;;;;;;;3.42;1.83;;;;;;;;;;5037206;28;20208;-50
2023/05/30 07:43:47;;;;;;;5.63;1.88;;;;;;;;;;5037064;28;20201;-48
2023/05/30 07:46:15;;;;;;;3.65;1.85;;;;;;;;;;5037157;28;20201;-49
2023/05/30 07:48:42;;;;;;;3.38;2.17;;;;;;;;;;5036899;28;20235;-49
2023/05/30 07:51:12;;;;;;;4.40;2.17;;;;;;;;;;5054303;28;20204;-50
2023/05/30 07:53:39;;;;;;;4.30;2.00;;;;;;;;;;5056522;28;20201;-48
2023/05/30 07:56:06;;;;;;;6.28;1.95;;;;;;;;;;5047091;28;20205;-49
2023/05/30 07:58:33;;;;;;;3.85;2.00;;;;;;;;;;5036593;28;20201;-50
2023/05/30 08:01:01;;;;;;;8.20;1.58;;;;;;;;;;5036540;28;20215;-48
2023/05/30 08:03:28;;;;;;;4.90;2.00;;;;;;;;;;5036419;28;20224;-49
2023/05/30 08:05:55;;;;;;;4.15;1.70;;;;;;;;;;5036706;28;20208;-49
2023/05/30 08:08:22;;;;;;;2.70;1.40;;;;;;;;;;5036328;28;20196;-49
2023/05/30 08:10:50;;;;;;;2.67;1.80;;;;;;;;;;5054555;28;20220;-50
2023/05/30 08:13:18;;;;;;;7.03;1.80;;;;;;;;;;5056499;28;20202;-49
2023/05/30 08:15:45;;;;;;;2.25;1.52;;;;;;;;;;5056110;28;20200;-49
2023/05/30 08:18:13;;;;;;;7.53;1.58;;;;;;;;;;5056538;28;20200;-49
2023/05/30 08:20:40;;;;;;;2.97;1.42;;;;;;;;;;5021691;28;20199;-53
2023/05/30 08:23:07;;;;;;;6.43;1.30;;;;;;;;;;5055945;28;20617;-49
2023/05/30 08:25:36;;;;;;;5.20;1.63;;;;;;;;;;5055933;28;20200;-48
2023/05/30 08:28:03;;;;;;;8.68;1.50;;;;;;;;;;5055922;28;20210;-52
2023/05/30 08:30:31;;;;;;;4.53;1.92;;;;;;;;;;5055748;28;20232;-49
2023/05/30 08:33:01;;;;;;;2.47;1.40;;;;;;;;;;5056331;28;20299;-51
2023/05/30 08:35:29;;;;;;;5.78;1.58;;;;;;;;;;5055987;28;20207;-49
2023/05/30 08:37:58;;;;;;;8.57;1.80;;;;;;;;;;5055863;28;20204;-49
2023/05/30 08:40:26;;;;;;;4.55;1.65;;;;;;;;;;5055720;28;20676;-50
2023/05/30 08:42:53;;;;;;;2.63;1.52;;;;;;;;;;5055849;28;20224;-52
2023/05/30 08:45:20;;;;;;;2.90;1.70;;;;;;;;;;5054611;28;20661;-50
2023/05/30 08:47:56;;;;;;;1.48;0.88;;;;;;;;;;5051923;28;20200;-49
2023/05/30 08:50:24;;;;;;;2.40;1.30;;;;;;;;;;5055890;28;20228;-49
2023/05/30 08:52:52;;;;;;;3.17;1.50;;;;;;;;;;5055604;28;20271;-51
2023/05/30 08:55:25;;;;;;;2.40;1.42;;;;;;;;;;5055497;28;20208;-49
2023/05/30 08:58:04;;;;;;;6.90;1.75;;;;;;;;;;5035808;28;20612;-50
2023/05/30 09:00:32;;;;;;;6.30;1.60;;;;;;;;;;5035533;28;20665;-52
2023/05/30 09:02:59;;;;;;;3.80;1.50;;;;;;;;;;5017959;28;20676;-49
2023/05/30 09:05:29;;;;;;;3.00;1.30;;;;;;;;;;5035319;28;20232;-50
2023/05/30 09:07:56;;;;;;;5.07;1.75;;;;;;;;;;5018094;28;20212;-51
2023/05/30 09:10:24;;;;;;;3.60;1.38;;;;;;;;;;5035724;28;20224;-51
2023/05/30 09:12:53;;;;;;;4.07;1.40;;;;;;;;;;5018270;28;20274;-49
2023/05/30 09:15:21;;;;;;;12.55;1.77;;;;;;;;;;5035742;28;20205;-49
2023/05/30 09:17:48;;;;;;;3.67;1.30;;;;;;;;;;5035114;28;20200;-50
2023/05/30 09:20:16;;;;;;;6.07;1.90;;;;;;;;;;5035120;28;20239;-51
2023/05/30 09:22:46;;;;;;;6.50;1.90;;;;;;;;;;5034932;28;20232;-51
2023/05/30 09:25:17;;;;;;;3.03;1.40;;;;;;;;;;5035325;28;20173;-50
2023/05/30 09:27:52;;;;;;;6.07;1.63;;;;;;;;;;5035153;28;20262;-49
2023/05/30 09:30:19;;;;;;;4.30;1.50;;;;;;;;;;5035013;28;20239;-49
2023/05/30 09:33:02;;;;;;;3.35;1.40;;;;;;;;;;5034700;28;20700;-53
2023/05/30 09:35:30;;;;;;;5.85;1.60;;;;;;;;;;5035189;28;20189;-49
2023/05/30 09:38:03;;;;;;;4.85;1.50;;;;;;;;;;5034835;28;20322;-49
2023/05/30 09:40:30;;;;;;;2.13;1.40;;;;;;;;;;5035225;28;20208;-50
2023/05/30 09:42:57;;;;;;;3.78;1.33;;;;;;;;;;5034782;28;20328;-50
2023/05/30 09:45:25;;;;;;;2.95;1.80;;;;;;;;;;5034808;28;20280;-53
2023/05/30 09:47:52;;;;;;;2.75;1.25;;;;;;;;;;5034438;28;20760;-52
2023/05/30 09:50:21;;;;;;;4.90;1.90;;;;;;;;;;5034675;28;20236;-50
2023/05/30 09:52:51;;;;;;;5.18;1.50;;;;;;;;;;5034396;28;20264;-50
2023/05/30 09:55:19;;;;;;;3.67;1.45;;;;;;;;;;5034402;28;20566;-51
2023/05/30 09:57:48;;;;;;;3.33;1.30;;;;;;;;;;5034200;28;20287;-49
2023/05/30 10:00:23;;;;;;;6.35;1.73;;;;;;;;;;5034495;28;20283;-50
2023/05/30 10:02:57;;;;;;;2.58;1.40;;;;;;;;;;5034242;28;20657;-50
2023/05/30 10:05:27;;;;;;;5.97;1.33;;;;;;;;;;5034203;28;20200;-50
2023/05/30 10:07:56;;;;;;;2.50;1.20;;;;;;;;;;5034130;28;20206;-50
2023/05/30 10:10:24;;;;;;;3.35;1.40;;;;;;;;;;5034353;28;20228;-50
2023/05/30 10:12:55;;;;;;;2.25;1.30;;;;;;;;;;5034289;28;20223;-49
2023/05/30 10:15:24;;;;;;;3.45;1.10;;;;;;;;;;5034437;28;20208;-55
2023/05/30 10:18:08;;;;;;;3.15;1.38;;;;;;;;;;5033925;28;20232;-50
2023/05/30 10:20:38;;;;;;;2.13;1.17;;;;;;;;;;5016667;28;20208;-50
2023/05/30 10:23:08;;;;;;;3.05;1.38;;;;;;;;;;5033787;28;20209;-51
2023/05/30 10:25:39;;;;;;;2.67;1.30;;;;;;;;;;5034063;28;20208;-49
2023/05/30 10:28:09;;;;;;;5.38;1.70;;;;;;;;;;5033976;28;20630;-52
2023/05/30 10:30:37;;;;;;;2.60;1.40;;;;;;;;;;5016577;28;20225;-53
2023/05/30 10:33:08;;;;;;;2.83;0.95;;;;;;;;;;5030174;28;20196;-53
2023/05/30 10:35:37;;;;;;;5.78;1.23;;;;;;;;;;5051044;28;20208;-53
2023/05/30 10:38:06;;;;;;;2.45;1.15;;;;;;;;;;5033014;28;20212;-49
2023/05/30 10:40:43;;;;;;;5.93;1.42;;;;;;;;;;5016353;28;20215;-49
2023/05/30 10:43:26;;;;;;;1.80;1.20;;;;;;;;;;5033761;28;20754;-48
2023/05/30 10:46:12;;;;;;;2.47;1.20;;;;;;;;;;5016193;28;20200;-51
2023/05/30 10:49:02;;;;;;;4.45;1.50;;;;;;;;;;5033766;28;20205;-49
2023/05/30 10:51:29;;;;;;;4.93;1.48;;;;;;;;;;5033647;28;20232;-49
2023/05/30 10:53:59;;;;;;;4.78;1.63;;;;;;;;;;5033726;28;20213;-53
2023/05/30 10:56:38;;;;;;;2.92;1.38;;;;;;;;;;5033536;28;20540;-49
2023/05/30 10:59:19;;;;;;;2.65;1.25;;;;;;;;;;5033421;28;20571;-50
2023/05/30 11:02:03;;;;;;;2.33;1.13;;;;;;;;;;5033604;28;20253;-50
2023/05/30 11:04:35;;;;;;;4.10;1.40;;;;;;;;;;5033341;28;20254;-50
2023/05/30 11:07:11;;;;;;;3.38;1.10;;;;;;;;;;5033250;28;20201;-50
2023/05/30 11:09:42;;;;;;;3.03;1.48;;;;;;;;;;5033027;28;20650;-49
2023/05/30 11:12:21;;;;;;;2.60;1.15;;;;;;;;;;5024277;28;20231;-50
2023/05/30 11:14:55;;;;;;;3.95;1.38;;;;;;;;;;5053161;28;20616;-51
2023/05/30 11:17:37;;;;;;;3.40;1.20;;;;;;;;;;5052398;28;20204;-52
2023/05/30 11:20:12;;;;;;;4.65;1.60;;;;;;;;;;5052989;28;20204;-56
2023/05/30 11:22:41;;;;;;;3.83;1.40;;;;;;;;;;5052046;28;20204;-49
2023/05/30 11:25:26;;;;;;;2.88;1.42;;;;;;;;;;5052641;28;20598;-52
2023/05/30 11:28:12;;;;;;;3.80;1.42;;;;;;;;;;5052468;28;20220;-50
2023/05/30 11:30:46;;;;;;;2.72;1.13;;;;;;;;;;5052936;28;20219;-50
2023/05/30 11:33:16;;;;;;;2.63;1.30;;;;;;;;;;5035591;28;20199;-50
2023/05/30 11:35:48;;;;;;;2.45;1.40;;;;;;;;;;5052442;28;20287;-50
2023/05/30 11:38:19;;;;;;;3.50;1.40;;;;;;;;;;5052952;28;20605;-51
2023/05/30 11:40:47;;;;;;;3.30;1.40;;;;;;;;;;5052860;28;20700;-50
2023/05/30 11:43:16;;;;;;;3.08;1.10;;;;;;;;;;5052710;28;20236;-49
2023/05/30 11:45:49;;;;;;;2.50;1.35;;;;;;;;;;5044839;28;20259;-49
2023/05/30 11:48:18;;;;;;;3.83;1.50;;;;;;;;;;5043325;28;20241;-54
2023/05/30 11:50:45;;;;;;;2.38;1.33;;;;;;;;;;5042152;28;20252;-49
2023/05/30 11:53:14;;;;;;;4.05;1.42;;;;;;;;;;5041545;28;20197;-49
2023/05/30 11:55:48;;;;;;;3.13;1.40;;;;;;;;;;5044923;28;20192;-50
2023/05/30 11:58:18;;;;;;;2.88;1.42;;;;;;;;;;5049310;28;20657;-50
2023/05/30 12:00:47;;;;;;;2.33;1.30;;;;;;;;;;5031177;28;20681;-50
2023/05/30 12:03:18;;;;;;;2.15;1.20;;;;;;;;;;5051182;28;20192;-51
2023/05/30 12:05:46;;;;;;;5.70;1.58;;;;;;;;;;5048858;28;20196;-52
2023/05/30 12:08:17;;;;;;;5.32;1.50;;;;;;;;;;5048517;28;20571;-51
2023/05/30 12:10:45;;;;;;;6.55;1.40;;;;;;;;;;5048453;28;20294;-49
2023/05/30 12:13:12;;;;;;;3.33;1.17;;;;;;;;;;5049975;28;20192;-49
2023/05/30 12:15:39;;;;;;;2.58;1.23;;;;;;;;;;5023877;28;20220;-49
2023/05/30 12:18:06;;;;;;;5.20;1.40;;;;;;;;;;5040895;28;20232;-50
2023/05/30 12:20:44;;;;;;;4.18;1.38;;;;;;;;;;5045694;28;20545;-52
2023/05/30 12:23:12;;;;;;;5.07;1.58;;;;;;;;;;5047728;28;20216;-53
2023/05/30 12:25:39;;;;;;;2.92;1.15;;;;;;;;;;5043907;28;20233;-49
2023/05/30 12:28:07;;;;;;;5.35;1.40;;;;;;;;;;5045231;28;20307;-49
2023/05/30 12:30:37;;;;;;;5.53;1.60;;;;;;;;;;5027199;28;20685;-50
2023/05/30 12:33:15;;;;;;;3.38;1.05;;;;;;;;;;5050786;28;20231;-53
2023/05/30 12:35:43;;;;;;;2.30;1.20;;;;;;;;;;5043978;28;20231;-53
2023/05/30 12:38:18;;;;;;;2.83;1.00;;;;;;;;;;5043422;28;20223;-51
2023/05/30 12:40:46;;;;;;;2.70;1.23;;;;;;;;;;5035880;28;20696;-50
2023/05/30 12:43:15;;;;;;;2.97;1.33;;;;;;;;;;5016895;28;20232;-50
2023/05/30 12:45:46;;;;;;;4.22;1.27;;;;;;;;;;5039754;28;20280;-54
2023/05/30 12:48:13;;;;;;;2.88;1.25;;;;;;;;;;5046787;28;20228;-50
2023/05/30 12:50:40;;;;;;;3.35;1.25;;;;;;;;;;5054855;28;20262;-50
2023/05/30 12:53:07;;;;;;;2.63;1.17;;;;;;;;;;5054443;28;20227;-53
2023/05/30 12:55:34;;;;;;;2.55;1.30;;;;;;;;;;5054872;28;20708;-52
2023/05/30 12:58:03;;;;;;;2.67;1.00;;;;;;;;;;5042248;28;20224;-51
2023/05/30 13:00:30;;;;;;;2.63;1.15;;;;;;;;;;5053599;28;20308;-49
2023/05/30 13:02:58;;;;;;;3.33;1.42;;;;;;;;;;5054192;28;20708;-50
2023/05/30 13:05:25;;;;;;;2.40;1.40;;;;;;;;;;5021419;28;20216;-48
2023/05/30 13:07:52;;;;;;;2.90;1.00;;;;;;;;;;5041697;28;20224;-49
2023/05/30 13:10:19;;;;;;;5.32;1.33;;;;;;;;;;5044377;28;20327;-51
2023/05/30 13:12:46;;;;;;;2.40;1.05;;;;;;;;;;5049503;28;20704;-50
2023/05/30 13:15:13;;;;;;;1.33;0.98;;;;;;;;;;5040314;28;20200;-50
2023/05/30 13:17:41;;;;;;;3.80;1.40;;;;;;;;;;5050899;28;20211;-51
2023/05/30 13:20:09;;;;;;;2.92;1.27;;;;;;;;;;5053982;28;20668;-51
2023/05/30 13:22:36;;;;;;;2.67;1.15;;;;;;;;;;5054276;28;20219;-50
2023/05/30 13:25:03;;;;;;;2.15;1.13;;;;;;;;;;5054436;28;20301;-50
2023/05/30 13:27:31;;;;;;;2.28;1.40;;;;;;;;;;5054612;28;20204;-50
2023/05/30 13:29:58;;;;;;;2.35;1.15;;;;;;;;;;5054620;28;20196;-49
2023/05/30 13:32:25;;;;;;;5.43;1.40;;;;;;;;;;5054117;28;20220;-49
2023/05/30 13:34:52;;;;;;;2.63;1.23;;;;;;;;;;5054888;28;20262;-50
2023/05/30 13:37:21;;;;;;;7.35;1.35;;;;;;;;;;5053010;28;20204;-54
2023/05/30 13:39:48;;;;;;;1.83;1.00;;;;;;;;;;5049170;28;20633;-49
2023/05/30 13:42:16;;;;;;;2.65;1.55;;;;;;;;;;5036888;28;20306;-50
2023/05/30 13:44:43;;;;;;;1.60;1.20;;;;;;;;;;5034504;28;20670;-48
2023/05/30 13:47:11;;;;;;;1.98;0.98;;;;;;;;;;5034530;28;20584;-49
2023/05/30 13:49:38;;;;;;;4.68;1.38;;;;;;;;;;5034379;28;20621;-49
2023/05/30 13:52:07;;;;;;;2.63;1.30;;;;;;;;;;5034293;28;20704;-49
2023/05/30 13:54:40;;;;;;;2.67;1.25;;;;;;;;;;5040399;28;20216;-49
2023/05/30 13:57:08;;;;;;;4.57;1.08;;;;;;;;;;5046118;28;20224;-49
2023/05/30 13:59:34;;;;;;;1.67;1.08;;;;;;;;;;5053209;28;20310;-51
2023/05/30 14:02:02;;;;;;;2.70;1.00;;;;;;;;;;5053819;28;20224;-50
2023/05/30 14:04:29;;;;;;;1.88;1.17;;;;;;;;;;5052823;28;20216;-51
2023/05/30 14:06:56;;;;;;;3.88;1.20;;;;;;;;;;5035320;28;20227;-50
2023/05/30 14:09:23;;;;;;;4.43;1.40;;;;;;;;;;5052958;28;20223;-50
2023/05/30 14:11:51;;;;;;;2.65;1.20;;;;;;;;;;5047135;28;20239;-50
2023/05/30 14:14:18;;;;;;;2.65;1.20;;;;;;;;;;5016046;28;20220;-51
2023/05/30 14:16:46;;;;;;;1.75;1.10;;;;;;;;;;5016354;28;20227;-49
2023/05/30 14:19:13;;;;;;;2.45;1.20;;;;;;;;;;5033508;28;20232;-49
2023/05/30 14:21:41;;;;;;;2.25;1.15;;;;;;;;;;5033167;28;20236;-50
2023/05/30 14:24:09;;;;;;;4.20;1.35;;;;;;;;;;5050511;28;20220;-49
2023/05/30 14:26:36;;;;;;;7.47;1.08;;;;;;;;;;5046287;28;20235;-51
2023/05/30 14:29:03;;;;;;;1.98;1.25;;;;;;;;;;5046908;28;20223;-50
2023/05/30 14:31:31;;;;;;;3.78;1.40;;;;;;;;;;5053210;28;20239;-51
2023/05/30 14:33:58;;;;;;;1.80;1.05;;;;;;;;;;5053267;28;20303;-54
2023/05/30 14:36:25;;;;;;;2.20;1.17;;;;;;;;;;5052909;28;20711;-54
2023/05/30 14:38:52;;;;;;;1.95;0.90;;;;;;;;;;5052424;28;20734;-52
2023/05/30 14:41:20;;;;;;;5.15;1.40;;;;;;;;;;5052953;28;20232;-50
2023/05/30 14:43:47;;;;;;;1.88;1.00;;;;;;;;;;5051843;28;20228;-55
2023/05/30 14:46:14;;;;;;;2.45;1.20;;;;;;;;;;5052950;28;20232;-50
2023/05/30 14:48:42;;;;;;;1.98;1.20;;;;;;;;;;5052698;28;20220;-51
2023/05/30 14:51:10;;;;;;;4.05;1.30;;;;;;;;;;5041214;28;20232;-50
2023/05/30 14:53:37;;;;;;;5.13;1.20;;;;;;;;;;5052294;28;20228;-48
2023/05/30 14:56:05;;;;;;;2.85;1.20;;;;;;;;;;5052717;28;20219;-50